sensor_id;sensor_type;location;lat;lon;timestamp;temperature;humidity
35680;DHT22;21803;53.586;10.040;2023-04-15T05:00:46;19.60;45.40
35680;DHT22;21803;53.586;10.040;2023-04-15T05:03:11;20.70;46.00
35680;DHT22;21803;53.586;10.040;2023-04-15T05:05:37;19.60;45.40
35680;DHT22;21803;53.586;10.040;2023-04-15T05:08:05;19.60;46.00
35680;DHT22;21803;53.586;10.040;2023-04-15T05:10:31;19.60;45.40
35680;DHT22;21803;53.586;10.040;2023-04-15T05:12:57;19.60;45.40
35680;DHT22;21803;53.586;10.040;2023-04-15T05:15:22;19.60;45.40
35680;DHT22;21803;53.586;10.040;2023-04-15T05:17:48;19.60;45.40
35680;DHT22;21803;53.586;10.040;2023-04-15T05:20:13;22.20;46.70
35680;DHT22;21803;53.586;10.040;2023-04-15T05:22:39;19.60;45.40
35680;DHT22;21803;53.586;10.040;2023-04-15T05:25:05;19.60;45.40
35680;DHT22;21803;53.586;10.040;2023-04-15T05:27:31;19.60;45.40
35680;DHT22;21803;53.586;10.040;2023-04-15T05:29:57;19.60;45.40
35680;DHT22;21803;53.586;10.040;2023-04-15T05:32:22;19.60;45.40
35680;DHT22;21803;53.586;10.040;2023-04-15T05:34:48;19.60;45.40
35680;DHT22;21803;53.586;10.040;2023-04-15T05:37:13;19.60;45.40
35680;DHT22;21803;53.586;10.040;2023-04-15T05:39:39;19.60;45.40
35680;DHT22;21803;53.586;10.040;2023-04-15T05:42:04;19.60;45.40
35680;DHT22;21803;53.586;10.040;2023-04-15T05:44:30;19.60;45.30
35680;DHT22;21803;53.586;10.040;2023-04-15T05:46:56;19.60;45.40
35680;DHT22;21803;53.586;10.040;2023-04-15T05:49:22;19.60;45.40
35680;DHT22;21803;53.586;10.040;2023-04-15T05:51:48;19.60;45.40
35680;DHT22;21803;53.586;10.040;2023-04-15T05:54:13;19.60;45.40
35680;DHT22;21803;53.586;10.040;2023-04-15T05:56:39;19.60;45.40
35680;DHT22;21803;53.586;10.040;2023-04-15T05:59:04;19.60;45.40
35680;DHT22;21803;53.586;10.040;2023-04-15T06:01:31;19.60;45.40
35680;DHT22;21803;53.586;10.040;2023-04-15T06:03:57;19.60;45.40
35680;DHT22;21803;53.586;10.040;2023-04-15T06:06:22;19.60;46.00
35680;DHT22;21803;53.586;10.040;2023-04-15T06:08:48;19.60;45.40
35680;DHT22;21803;53.586;10.040;2023-04-15T06:11:14;19.60;45.40
35680;DHT22;21803;53.586;10.040;2023-04-15T06:13:39;19.60;45.40
35680;DHT22;21803;53.586;10.040;2023-04-15T06:16:06;19.60;45.40
35680;DHT22;21803;53.586;10.040;2023-04-15T06:18:32;19.60;45.40
35680;DHT22;21803;53.586;10.040;2023-04-15T06:20:57;19.60;45.40
35680;DHT22;21803;53.586;10.040;2023-04-15T06:23:23;19.60;45.40
35680;DHT22;21803;53.586;10.040;2023-04-15T06:25:49;19.60;45.40
35680;DHT22;21803;53.586;10.040;2023-04-15T06:28:14;19.60;45.40
35680;DHT22;21803;53.586;10.040;2023-04-15T06:30:40;19.60;45.40
35680;DHT22;21803;53.586;10.040;2023-04-15T06:33:05;19.60;45.40
35680;DHT22;21803;53.586;10.040;2023-04-15T06:35:31;19.60;45.40
35680;DHT22;21803;53.586;10.040;2023-04-15T06:37:57;19.60;45.40
35680;DHT22;21803;53.586;10.040;2023-04-15T06:40:22;19.60;45.30
35680;DHT22;21803;53.586;10.040;2023-04-15T06:42:48;19.60;45.40
35680;DHT22;21803;53.586;10.040;2023-04-15T06:45:13;19.60;45.40
35680;DHT22;21803;53.586;10.040;2023-04-15T06:47:39;19.60;45.40
35680;DHT22;21803;53.586;10.040;2023-04-15T06:50:06;19.60;45.40
35680;DHT22;21803;53.586;10.040;2023-04-15T06:52:31;19.60;45.30
35680;DHT22;21803;53.586;10.040;2023-04-15T06:54:57;19.60;45.40
35680;DHT22;21803;53.586;10.040;2023-04-15T06:57:23;19.60;45.30
35680;DHT22;21803;53.586;10.040;2023-04-15T06:59:49;19.60;45.40
35680;DHT22;21803;53.586;10.040;2023-04-15T07:02:15;19.60;45.40
35680;DHT22;21803;53.586;10.040;2023-04-15T07:04:41;19.60;45.40
35680;DHT22;21803;53.586;10.040;2023-04-15T07:07:07;19.60;45.40
35680;DHT22;21803;53.586;10.040;2023-04-15T07:09:32;19.60;45.40
35680;DHT22;21803;53.586;10.040;2023-04-15T07:11:58;19.60;45.30
35680;DHT22;21803;53.586;10.040;2023-04-15T07:14:24;19.60;45.30
35680;DHT22;21803;53.586;10.040;2023-04-15T07:16:49;19.60;45.40
35680;DHT22;21803;53.586;10.040;2023-04-15T07:19:15;19.60;45.40
35680;DHT22;21803;53.586;10.040;2023-04-15T07:21:41;19.60;45.30
35680;DHT22;21803;53.586;10.040;2023-04-15T07:24:07;19.60;45.30
35680;DHT22;21803;53.586;10.040;2023-04-15T07:26:33;19.60;45.30
35680;DHT22;21803;53.586;10.040;2023-04-15T07:28:58;19.60;45.30
35680;DHT22;21803;53.586;10.040;2023-04-15T07:31:24;19.60;45.30
35680;DHT22;21803;53.586;10.040;2023-04-15T07:33:49;19.60;45.30
35680;DHT22;21803;53.586;10.040;2023-04-15T07:36:15;19.60;45.40
35680;DHT22;21803;53.586;10.040;2023-04-15T07:38:40;19.60;45.30
35680;DHT22;21803;53.586;10.040;2023-04-15T07:41:06;19.50;45.30
35680;DHT22;21803;53.586;10.040;2023-04-15T07:43:32;19.60;45.30
35680;DHT22;21803;53.586;10.040;2023-04-15T07:45:58;19.60;45.30
35680;DHT22;21803;53.586;10.040;2023-04-15T07:48:24;19.60;45.40
35680;DHT22;21803;53.586;10.040;2023-04-15T07:50:50;19.60;45.40
35680;DHT22;21803;53.586;10.040;2023-04-15T07:53:15;19.60;45.30
35680;DHT22;21803;53.586;10.040;2023-04-15T07:55:41;19.60;45.40
35680;DHT22;21803;53.586;10.040;2023-04-15T07:58:06;19.60;45.30
35680;DHT22;21803;53.586;10.040;2023-04-15T08:00:32;19.60;45.40
35680;DHT22;21803;53.586;10.040;2023-04-15T08:02:57;19.60;46.00
35680;DHT22;21803;53.586;10.040;2023-04-15T08:05:24;19.60;45.40
35680;DHT22;21803;53.586;10.040;2023-04-15T08:07:50;19.60;45.40
35680;DHT22;21803;53.586;10.040;2023-04-15T08:10:16;19.60;45.40
35680;DHT22;21803;53.586;10.040;2023-04-15T08:12:41;19.70;45.40
35680;DHT22;21803;53.586;10.040;2023-04-15T08:15:07;19.60;45.40
35680;DHT22;21803;53.586;10.040;2023-04-15T08:17:33;19.60;45.40
35680;DHT22;21803;53.586;10.040;2023-04-15T08:19:59;19.60;45.40
35680;DHT22;21803;53.586;10.040;2023-04-15T08:22:24;19.60;45.40
35680;DHT22;21803;53.586;10.040;2023-04-15T08:24:50;19.60;45.40
35680;DHT22;21803;53.586;10.040;2023-04-15T08:27:16;19.60;45.40
35680;DHT22;21803;53.586;10.040;2023-04-15T08:29:42;19.60;45.40
35680;DHT22;21803;53.586;10.040;2023-04-15T08:32:07;19.60;45.40
35680;DHT22;21803;53.586;10.040;2023-04-15T08:34:34;19.60;45.40
35680;DHT22;21803;53.586;10.040;2023-04-15T08:36:59;19.60;45.40
35680;DHT22;21803;53.586;10.040;2023-04-15T08:39:25;19.60;45.40
35680;DHT22;21803;53.586;10.040;2023-04-15T08:44:22;19.60;45.40
35680;DHT22;21803;53.586;10.040;2023-04-15T08:46:49;19.60;45.40
35680;DHT22;21803;53.586;10.040;2023-04-15T08:49:16;19.60;45.40
35680;DHT22;21803;53.586;10.040;2023-04-15T08:51:43;19.60;45.40
35680;DHT22;21803;53.586;10.040;2023-04-15T08:54:10;19.60;45.40
35680;DHT22;21803;53.586;10.040;2023-04-15T08:56:35;19.60;45.40
35680;DHT22;21803;53.586;10.040;2023-04-15T08:59:01;19.60;45.40
35680;DHT22;21803;53.586;10.040;2023-04-15T09:01:28;19.70;45.50
35680;DHT22;21803;53.586;10.040;2023-04-15T09:03:53;19.60;45.40
35680;DHT22;21803;53.586;10.040;2023-04-15T09:06:20;19.60;45.40
35680;DHT22;21803;53.586;10.040;2023-04-15T09:08:46;19.60;45.50
35680;DHT22;21803;53.586;10.040;2023-04-15T09:11:12;19.60;45.40
35680;DHT22;21803;53.586;10.040;2023-04-15T09:13:38;19.60;45.40
35680;DHT22;21803;53.586;10.040;2023-04-15T09:16:05;19.60;45.50
35680;DHT22;21803;53.586;10.040;2023-04-15T09:18:32;19.70;45.50
35680;DHT22;21803;53.586;10.040;2023-04-15T09:23:34;19.70;45.50
35680;DHT22;21803;53.586;10.040;2023-04-15T09:26:01;19.60;45.50
35680;DHT22;21803;53.586;10.040;2023-04-15T09:28:27;19.70;45.50
35680;DHT22;21803;53.586;10.040;2023-04-15T09:31:00;19.70;45.50
35680;DHT22;21803;53.586;10.040;2023-04-15T09:33:28;19.70;45.50
35680;DHT22;21803;53.586;10.040;2023-04-15T09:36:03;19.70;45.40
35680;DHT22;21803;53.586;10.040;2023-04-15T09:38:30;19.70;45.40
35680;DHT22;21803;53.586;10.040;2023-04-15T09:40:56;19.70;45.40
35680;DHT22;21803;53.586;10.040;2023-04-15T09:43:25;19.70;45.40
35680;DHT22;21803;53.586;10.040;2023-04-15T09:46:01;19.70;45.40
35680;DHT22;21803;53.586;10.040;2023-04-15T09:48:26;19.70;45.40
35680;DHT22;21803;53.586;10.040;2023-04-15T09:50:53;19.70;45.40
35680;DHT22;21803;53.586;10.040;2023-04-15T09:53:24;19.70;45.40
35680;DHT22;21803;53.586;10.040;2023-04-15T09:55:54;19.70;45.40
35680;DHT22;21803;53.586;10.040;2023-04-15T09:58:25;19.60;45.30
35680;DHT22;21803;53.586;10.040;2023-04-15T10:00:52;19.70;45.40
35680;DHT22;21803;53.586;10.040;2023-04-15T10:03:21;19.70;45.40
35680;DHT22;21803;53.586;10.040;2023-04-15T10:05:48;19.70;45.40
35680;DHT22;21803;53.586;10.040;2023-04-15T10:08:20;19.70;45.40
35680;DHT22;21803;53.586;10.040;2023-04-15T10:10:47;19.70;46.00
35680;DHT22;21803;53.586;10.040;2023-04-15T10:15:57;19.70;45.40
35680;DHT22;21803;53.586;10.040;2023-04-15T10:18:24;19.70;45.40
35680;DHT22;21803;53.586;10.040;2023-04-15T10:20:51;19.70;45.50
35680;DHT22;21803;53.586;10.040;2023-04-15T10:23:17;19.70;45.40
35680;DHT22;21803;53.586;10.040;2023-04-15T10:25:45;19.70;45.50
35680;DHT22;21803;53.586;10.040;2023-04-15T10:28:12;19.70;45.50
35680;DHT22;21803;53.586;10.040;2023-04-15T10:30:39;19.70;45.50
35680;DHT22;21803;53.586;10.040;2023-04-15T10:33:04;19.70;45.50
35680;DHT22;21803;53.586;10.040;2023-04-15T10:35:31;19.80;45.60
35680;DHT22;21803;53.586;10.040;2023-04-15T10:37:58;19.70;45.70
35680;DHT22;21803;53.586;10.040;2023-04-15T10:42:59;19.70;45.80
35680;DHT22;21803;53.586;10.040;2023-04-15T10:45:34;19.70;45.90
35680;DHT22;21803;53.586;10.040;2023-04-15T10:48:03;19.80;46.00
35680;DHT22;21803;53.586;10.040;2023-04-15T10:50:32;19.70;46.00
35680;DHT22;21803;53.586;10.040;2023-04-15T10:52:58;19.80;46.10
35680;DHT22;21803;53.586;10.040;2023-04-15T10:55:31;19.80;46.10
35680;DHT22;21803;53.586;10.040;2023-04-15T10:58:01;19.80;46.10
35680;DHT22;21803;53.586;10.040;2023-04-15T11:00:31;19.80;46.20
35680;DHT22;21803;53.586;10.040;2023-04-15T11:03:09;19.70;46.10
35680;DHT22;21803;53.586;10.040;2023-04-15T11:08:11;19.80;46.20
35680;DHT22;21803;53.586;10.040;2023-04-15T11:13:24;19.80;46.20
35680;DHT22;21803;53.586;10.040;2023-04-15T11:15:55;19.80;46.20
35680;DHT22;21803;53.586;10.040;2023-04-15T11:18:27;19.80;46.20
35680;DHT22;21803;53.586;10.040;2023-04-15T11:21:01;21.00;46.80
35680;DHT22;21803;53.586;10.040;2023-04-15T11:23:35;19.80;46.30
35680;DHT22;21803;53.586;10.040;2023-04-15T11:26:03;19.80;46.30
35680;DHT22;21803;53.586;10.040;2023-04-15T11:28:31;19.80;46.30
35680;DHT22;21803;53.586;10.040;2023-04-15T11:30:57;19.80;46.30
35680;DHT22;21803;53.586;10.040;2023-04-15T11:33:24;19.80;46.20
35680;DHT22;21803;53.586;10.040;2023-04-15T11:35:52;19.80;46.30
35680;DHT22;21803;53.586;10.040;2023-04-15T11:38:18;19.80;46.30
35680;DHT22;21803;53.586;10.040;2023-04-15T11:40:44;19.80;46.30
35680;DHT22;21803;53.586;10.040;2023-04-15T11:43:12;19.80;46.30
35680;DHT22;21803;53.586;10.040;2023-04-15T11:45:54;19.80;46.20
35680;DHT22;21803;53.586;10.040;2023-04-15T11:48:22;19.80;46.20
35680;DHT22;21803;53.586;10.040;2023-04-15T11:51:06;19.80;46.30
35680;DHT22;21803;53.586;10.040;2023-04-15T11:53:54;19.80;46.20
35680;DHT22;21803;53.586;10.040;2023-04-15T11:56:22;19.80;46.20
35680;DHT22;21803;53.586;10.040;2023-04-15T11:58:51;19.80;46.20
35680;DHT22;21803;53.586;10.040;2023-04-15T12:01:17;19.80;46.20
35680;DHT22;21803;53.586;10.040;2023-04-15T12:03:47;19.80;46.10
35680;DHT22;21803;53.586;10.040;2023-04-15T12:06:20;19.80;46.20
35680;DHT22;21803;53.586;10.040;2023-04-15T12:08:57;19.80;46.20
35680;DHT22;21803;53.586;10.040;2023-04-15T12:14:05;19.80;46.10
35680;DHT22;21803;53.586;10.040;2023-04-15T12:16:33;19.80;46.10
35680;DHT22;21803;53.586;10.040;2023-04-15T12:18:59;19.80;46.10
35680;DHT22;21803;53.586;10.040;2023-04-15T12:21:27;19.80;46.10
35680;DHT22;21803;53.586;10.040;2023-04-15T12:24:01;19.80;46.10
35680;DHT22;21803;53.586;10.040;2023-04-15T12:26:31;19.80;46.10
35680;DHT22;21803;53.586;10.040;2023-04-15T12:29:05;19.80;46.10
35680;DHT22;21803;53.586;10.040;2023-04-15T12:31:31;19.80;46.10
35680;DHT22;21803;53.586;10.040;2023-04-15T12:33:58;19.80;46.10
35680;DHT22;21803;53.586;10.040;2023-04-15T12:36:26;19.80;46.10
35680;DHT22;21803;53.586;10.040;2023-04-15T12:38:51;19.70;46.10
35680;DHT22;21803;53.586;10.040;2023-04-15T12:41:17;19.80;46.10
35680;DHT22;21803;53.586;10.040;2023-04-15T12:43:45;19.80;46.10
35680;DHT22;21803;53.586;10.040;2023-04-15T12:46:12;19.80;46.10
35680;DHT22;21803;53.586;10.040;2023-04-15T12:48:37;19.80;46.10
35680;DHT22;21803;53.586;10.040;2023-04-15T12:51:03;19.80;46.10
35680;DHT22;21803;53.586;10.040;2023-04-15T12:53:28;19.80;46.10
35680;DHT22;21803;53.586;10.040;2023-04-15T12:55:54;19.80;46.10
35680;DHT22;21803;53.586;10.040;2023-04-15T12:58:20;19.80;46.10
35680;DHT22;21803;53.586;10.040;2023-04-15T13:00:46;19.80;46.70
35680;DHT22;21803;53.586;10.040;2023-04-15T13:03:11;19.80;46.10
35680;DHT22;21803;53.586;10.040;2023-04-15T13:05:38;19.80;46.10
35680;DHT22;21803;53.586;10.040;2023-04-15T13:08:05;19.80;46.10
35680;DHT22;21803;53.586;10.040;2023-04-15T13:10:31;19.80;46.10
35680;DHT22;21803;53.586;10.040;2023-04-15T13:12:57;19.80;46.10
35680;DHT22;21803;53.586;10.040;2023-04-15T13:15:22;19.80;46.10
35680;DHT22;21803;53.586;10.040;2023-04-15T13:17:49;19.80;46.10
35680;DHT22;21803;53.586;10.040;2023-04-15T13:20:14;19.80;46.10
35680;DHT22;21803;53.586;10.040;2023-04-15T13:22:40;19.80;46.00
35680;DHT22;21803;53.586;10.040;2023-04-15T13:25:06;19.80;46.00
35680;DHT22;21803;53.586;10.040;2023-04-15T13:27:32;19.80;46.10
35680;DHT22;21803;53.586;10.040;2023-04-15T13:29:58;19.80;46.10
35680;DHT22;21803;53.586;10.040;2023-04-15T13:32:24;19.80;46.10
35680;DHT22;21803;53.586;10.040;2023-04-15T13:34:49;19.80;46.00
35680;DHT22;21803;53.586;10.040;2023-04-15T13:37:15;19.80;46.10
35680;DHT22;21803;53.586;10.040;2023-04-15T13:39:41;19.80;46.00
35680;DHT22;21803;53.586;10.040;2023-04-15T13:42:06;19.80;46.00
35680;DHT22;21803;53.586;10.040;2023-04-15T13:44:32;19.80;46.00
35680;DHT22;21803;53.586;10.040;2023-04-15T13:46:57;19.80;46.00
35680;DHT22;21803;53.586;10.040;2023-04-15T13:49:23;19.80;46.00
35680;DHT22;21803;53.586;10.040;2023-04-15T13:51:49;19.80;46.00
35680;DHT22;21803;53.586;10.040;2023-04-15T13:54:15;19.80;46.10
35680;DHT22;21803;53.586;10.040;2023-04-15T13:56:40;19.80;46.10
35680;DHT22;21803;53.586;10.040;2023-04-15T13:59:06;19.80;46.00
35680;DHT22;21803;53.586;10.040;2023-04-15T14:01:33;19.80;46.00
35680;DHT22;21803;53.586;10.040;2023-04-15T14:03:59;19.80;46.00
35680;DHT22;21803;53.586;10.040;2023-04-15T14:06:24;19.80;46.00
35680;DHT22;21803;53.586;10.040;2023-04-15T14:08:51;19.80;46.00
35680;DHT22;21803;53.586;10.040;2023-04-15T14:11:17;19.80;46.00
35680;DHT22;21803;53.586;10.040;2023-04-15T14:13:43;19.80;46.00
35680;DHT22;21803;53.586;10.040;2023-04-15T14:16:08;19.80;46.00
35680;DHT22;21803;53.586;10.040;2023-04-15T14:18:34;19.80;46.60
35680;DHT22;21803;53.586;10.040;2023-04-15T14:21:01;19.80;46.00
35680;DHT22;21803;53.586;10.040;2023-04-15T14:23:27;19.80;46.00
35680;DHT22;21803;53.586;10.040;2023-04-15T14:25:52;19.80;46.00
35680;DHT22;21803;53.586;10.040;2023-04-15T14:28:18;19.80;46.00
35680;DHT22;21803;53.586;10.040;2023-04-15T14:30:43;19.80;46.10
35680;DHT22;21803;53.586;10.040;2023-04-15T14:33:09;19.80;46.00
35680;DHT22;21803;53.586;10.040;2023-04-15T14:35:35;19.80;46.00
35680;DHT22;21803;53.586;10.040;2023-04-15T14:38:00;19.80;46.10
35680;DHT22;21803;53.586;10.040;2023-04-15T14:40:26;19.80;46.10
35680;DHT22;21803;53.586;10.040;2023-04-15T14:42:51;19.80;46.10
35680;DHT22;21803;53.586;10.040;2023-04-15T14:45:17;19.80;46.10
35680;DHT22;21803;53.586;10.040;2023-04-15T14:47:42;19.80;46.10
35680;DHT22;21803;53.586;10.040;2023-04-15T14:50:08;19.80;46.10
35680;DHT22;21803;53.586;10.040;2023-04-15T14:52:34;19.80;46.10
35680;DHT22;21803;53.586;10.040;2023-04-15T14:55:05;19.80;46.10
35680;DHT22;21803;53.586;10.040;2023-04-15T14:57:31;19.80;46.10
35680;DHT22;21803;53.586;10.040;2023-04-15T14:59:56;19.80;46.20
35680;DHT22;21803;53.586;10.040;2023-04-15T15:02:22;19.80;46.20
35680;DHT22;21803;53.586;10.040;2023-04-15T15:04:47;19.80;46.20
35680;DHT22;21803;53.586;10.040;2023-04-15T15:07:13;19.80;46.20
35680;DHT22;21803;53.586;10.040;2023-04-15T15:09:39;19.80;46.20
35680;DHT22;21803;53.586;10.040;2023-04-15T15:12:05;19.80;46.20
35680;DHT22;21803;53.586;10.040;2023-04-15T15:14:31;19.80;46.20
35680;DHT22;21803;53.586;10.040;2023-04-15T15:16:57;19.80;46.30
35680;DHT22;21803;53.586;10.040;2023-04-15T15:19:22;19.80;46.20
35680;DHT22;21803;53.586;10.040;2023-04-15T15:21:49;19.80;46.30
35680;DHT22;21803;53.586;10.040;2023-04-15T15:24:15;19.80;46.30
35680;DHT22;21803;53.586;10.040;2023-04-15T15:26:40;19.80;46.30
35680;DHT22;21803;53.586;10.040;2023-04-15T15:29:06;19.80;46.30
35680;DHT22;21803;53.586;10.040;2023-04-15T15:31:34;19.80;46.30
35680;DHT22;21803;53.586;10.040;2023-04-15T15:33:59;19.80;46.30
35680;DHT22;21803;53.586;10.040;2023-04-15T15:36:25;19.80;46.30
35680;DHT22;21803;53.586;10.040;2023-04-15T15:38:52;19.80;46.40
35680;DHT22;21803;53.586;10.040;2023-04-15T15:41:17;19.80;46.40
35680;DHT22;21803;53.586;10.040;2023-04-15T15:43:43;19.80;46.40
35680;DHT22;21803;53.586;10.040;2023-04-15T15:46:08;19.80;46.40
35680;DHT22;21803;53.586;10.040;2023-04-15T15:48:34;19.80;46.40
35680;DHT22;21803;53.586;10.040;2023-04-15T15:51:00;19.80;46.40
35680;DHT22;21803;53.586;10.040;2023-04-15T15:53:26;19.80;46.40
35680;DHT22;21803;53.586;10.040;2023-04-15T15:55:51;19.80;46.40
35680;DHT22;21803;53.586;10.040;2023-04-15T15:58:17;19.80;46.40
35680;DHT22;21803;53.586;10.040;2023-04-15T16:00:42;19.80;46.50
35680;DHT22;21803;53.586;10.040;2023-04-15T16:03:08;19.80;46.40
35680;DHT22;21803;53.586;10.040;2023-04-15T16:05:34;19.80;46.40
35680;DHT22;21803;53.586;10.040;2023-04-15T16:08:00;19.80;46.50
35680;DHT22;21803;53.586;10.040;2023-04-15T16:10:26;19.80;46.50
35680;DHT22;21803;53.586;10.040;2023-04-15T16:12:51;19.80;46.50
35680;DHT22;21803;53.586;10.040;2023-04-15T16:15:17;19.80;46.50
35680;DHT22;21803;53.586;10.040;2023-04-15T16:17:43;19.80;46.50
35680;DHT22;21803;53.586;10.040;2023-04-15T16:20:08;19.80;46.50
35680;DHT22;21803;53.586;10.040;2023-04-15T16:22:34;19.80;46.50
35680;DHT22;21803;53.586;10.040;2023-04-15T16:25:00;19.80;46.50
35680;DHT22;21803;53.586;10.040;2023-04-15T16:27:26;19.80;46.50
35680;DHT22;21803;53.586;10.040;2023-04-15T16:29:52;19.80;46.60
35680;DHT22;21803;53.586;10.040;2023-04-15T16:32:18;19.80;46.60
35680;DHT22;21803;53.586;10.040;2023-04-15T16:34:44;19.80;46.60
35680;DHT22;21803;53.586;10.040;2023-04-15T16:37:09;19.80;46.60
35680;DHT22;21803;53.586;10.040;2023-04-15T16:39:35;19.80;46.60
35680;DHT22;21803;53.586;10.040;2023-04-15T16:42:01;19.80;46.60
35680;DHT22;21803;53.586;10.040;2023-04-15T16:44:27;19.80;46.60
35680;DHT22;21803;53.586;10.040;2023-04-15T16:46:53;19.80;46.60
35680;DHT22;21803;53.586;10.040;2023-04-15T16:49:19;19.80;46.60
35680;DHT22;21803;53.586;10.040;2023-04-15T16:51:44;19.80;46.60
35680;DHT22;21803;53.586;10.040;2023-04-15T16:54:10;19.80;46.60
35680;DHT22;21803;53.586;10.040;2023-04-15T16:56:36;19.80;46.60
35680;DHT22;21803;53.586;10.040;2023-04-15T16:59:01;19.80;46.70
35680;DHT22;21803;53.586;10.040;2023-04-15T17:01:28;19.80;46.70
35680;DHT22;21803;53.586;10.040;2023-04-15T17:03:53;19.80;46.70
35680;DHT22;21803;53.586;10.040;2023-04-15T17:06:19;19.80;46.70
35680;DHT22;21803;53.586;10.040;2023-04-15T17:08:44;19.80;46.70
35680;DHT22;21803;53.586;10.040;2023-04-15T17:11:10;19.80;46.70
35680;DHT22;21803;53.586;10.040;2023-04-15T17:13:37;19.80;46.70
35680;DHT22;21803;53.586;10.040;2023-04-15T17:16:02;19.80;46.70
35680;DHT22;21803;53.586;10.040;2023-04-15T17:18:28;19.80;46.70
35680;DHT22;21803;53.586;10.040;2023-04-15T17:20:54;19.80;46.70
35680;DHT22;21803;53.586;10.040;2023-04-15T17:23:20;19.80;46.70
35680;DHT22;21803;53.586;10.040;2023-04-15T17:25:46;19.80;46.70
35680;DHT22;21803;53.586;10.040;2023-04-15T17:28:12;19.80;46.70
35680;DHT22;21803;53.586;10.040;2023-04-15T17:30:38;19.80;46.80
35680;DHT22;21803;53.586;10.040;2023-04-15T17:33:04;19.70;46.80
35680;DHT22;21803;53.586;10.040;2023-04-15T17:35:30;19.80;46.90
35680;DHT22;21803;53.586;10.040;2023-04-15T17:37:55;19.80;47.30
35680;DHT22;21803;53.586;10.040;2023-04-15T17:40:21;19.80;46.90
35680;DHT22;21803;53.586;10.040;2023-04-15T17:42:46;19.70;47.00
35680;DHT22;21803;53.586;10.040;2023-04-15T17:45:13;19.80;47.00
35680;DHT22;21803;53.586;10.040;2023-04-15T17:47:38;19.80;47.00
35680;DHT22;21803;53.586;10.040;2023-04-15T17:50:05;19.80;46.90
35680;DHT22;21803;53.586;10.040;2023-04-15T17:52:31;19.80;47.00
35680;DHT22;21803;53.586;10.040;2023-04-15T17:54:56;19.80;47.00
35680;DHT22;21803;53.586;10.040;2023-04-15T17:57:22;19.80;47.00
35680;DHT22;21803;53.586;10.040;2023-04-15T17:59:49;19.80;47.00
35680;DHT22;21803;53.586;10.040;2023-04-15T18:02:15;19.80;47.00
35680;DHT22;21803;53.586;10.040;2023-04-15T18:04:41;19.70;47.00
35680;DHT22;21803;53.586;10.040;2023-04-15T18:07:06;19.70;47.00
35680;DHT22;21803;53.586;10.040;2023-04-15T18:09:32;19.80;47.10
35680;DHT22;21803;53.586;10.040;2023-04-15T18:11:57;19.70;47.00
35680;DHT22;21803;53.586;10.040;2023-04-15T18:14:23;19.80;47.00
35680;DHT22;21803;53.586;10.040;2023-04-15T18:16:48;19.70;47.10
35680;DHT22;21803;53.586;10.040;2023-04-15T18:19:15;19.80;47.10
35680;DHT22;21803;53.586;10.040;2023-04-15T18:21:42;19.80;47.10
35680;DHT22;21803;53.586;10.040;2023-04-15T18:24:08;19.80;47.10
35680;DHT22;21803;53.586;10.040;2023-04-15T18:26:33;19.70;47.10
35680;DHT22;21803;53.586;10.040;2023-04-15T18:28:59;19.80;47.10
35680;DHT22;21803;53.586;10.040;2023-04-15T18:31:25;19.80;47.10
35680;DHT22;21803;53.586;10.040;2023-04-15T18:33:50;19.80;47.20
35680;DHT22;21803;53.586;10.040;2023-04-15T18:36:16;19.80;47.20
35680;DHT22;21803;53.586;10.040;2023-04-15T18:38:43;19.80;47.20
35680;DHT22;21803;53.586;10.040;2023-04-15T18:41:09;19.70;47.20
35680;DHT22;21803;53.586;10.040;2023-04-15T18:43:34;19.70;47.10
35680;DHT22;21803;53.586;10.040;2023-04-15T18:46:00;19.70;47.20
35680;DHT22;21803;53.586;10.040;2023-04-15T18:48:28;19.70;47.20
35680;DHT22;21803;53.586;10.040;2023-04-15T18:50:53;19.70;47.20
35680;DHT22;21803;53.586;10.040;2023-04-15T18:53:20;19.70;47.20
35680;DHT22;21803;53.586;10.040;2023-04-15T18:55:45;19.70;47.20
35680;DHT22;21803;53.586;10.040;2023-04-15T18:58:11;19.70;47.40
35680;DHT22;21803;53.586;10.040;2023-04-15T19:00:37;19.70;47.20
35680;DHT22;21803;53.586;10.040;2023-04-15T19:03:06;19.70;47.30
35680;DHT22;21803;53.586;10.040;2023-04-15T19:05:31;19.70;47.20
35680;DHT22;21803;53.586;10.040;2023-04-15T19:07:57;19.70;47.30
35680;DHT22;21803;53.586;10.040;2023-04-15T19:10:22;19.80;47.30
35680;DHT22;21803;53.586;10.040;2023-04-15T19:12:48;19.70;47.30
35680;DHT22;21803;53.586;10.040;2023-04-15T19:15:13;19.70;47.30
35680;DHT22;21803;53.586;10.040;2023-04-15T19:17:39;19.70;47.30
35680;DHT22;21803;53.586;10.040;2023-04-15T19:20:05;19.70;47.30
35680;DHT22;21803;53.586;10.040;2023-04-15T19:22:30;19.70;47.30
35680;DHT22;21803;53.586;10.040;2023-04-15T19:24:56;19.70;47.30
35680;DHT22;21803;53.586;10.040;2023-04-15T19:27:22;19.70;47.40
35680;DHT22;21803;53.586;10.040;2023-04-15T19:29:47;19.70;47.40
35680;DHT22;21803;53.586;10.040;2023-04-15T19:32:13;19.70;47.40
35680;DHT22;21803;53.586;10.040;2023-04-15T19:34:39;19.70;47.40
35680;DHT22;21803;53.586;10.040;2023-04-15T19:37:05;19.70;47.40
35680;DHT22;21803;53.586;10.040;2023-04-15T19:39:31;19.70;47.40
35680;DHT22;21803;53.586;10.040;2023-04-15T19:41:56;19.70;47.40
35680;DHT22;21803;53.586;10.040;2023-04-15T19:44:23;19.70;47.40
35680;DHT22;21803;53.586;10.040;2023-04-15T19:46:48;19.70;47.40
35680;DHT22;21803;53.586;10.040;2023-04-15T19:49:16;19.70;47.40
35680;DHT22;21803;53.586;10.040;2023-04-15T19:51:42;19.70;47.40
35680;DHT22;21803;53.586;10.040;2023-04-15T19:54:07;19.70;47.50
35680;DHT22;21803;53.586;10.040;2023-04-15T19:56:33;19.70;47.50
35680;DHT22;21803;53.586;10.040;2023-04-15T19:58:58;19.70;47.40
35680;DHT22;21803;53.586;10.040;2023-04-15T20:01:24;19.70;47.50
35680;DHT22;21803;53.586;10.040;2023-04-15T20:03:51;19.70;47.50
35680;DHT22;21803;53.586;10.040;2023-04-15T20:06:18;19.70;47.50
35680;DHT22;21803;53.586;10.040;2023-04-15T20:08:43;19.70;47.50
35680;DHT22;21803;53.586;10.040;2023-04-15T20:11:09;19.70;47.60
35680;DHT22;21803;53.586;10.040;2023-04-15T20:13:35;19.70;47.60
35680;DHT22;21803;53.586;10.040;2023-04-15T20:16:00;19.70;47.50
35680;DHT22;21803;53.586;10.040;2023-04-15T20:18:26;19.80;47.60
35680;DHT22;21803;53.586;10.040;2023-04-15T20:20:52;19.70;47.60
35680;DHT22;21803;53.586;10.040;2023-04-15T20:23:17;19.70;47.60
35680;DHT22;21803;53.586;10.040;2023-04-15T20:25:43;19.70;47.60
35680;DHT22;21803;53.586;10.040;2023-04-15T20:28:08;19.70;47.60